Aérodrome :
LOGIN :

S'inscrire | Disclaimer

   EN    FR    IT 

 










Légende :    VFR   VFR Marginal   IFR   IFR Intensif   IFR Très Intensif
Visi : 
Plafond : 
>= 8 km
>= 3000ft
5 à 8 km
1000 à 3000 ft
1500m à 5 km
500 à 1000 ft
800 à 1500m
200 à 500 ft
< 800m
< 200 ft
Symboles :   Orages  Brouillard  Fortes neiges  Fortes précipitations  Vent > 20 kt
SIGMETs :   Divers  Orages  Givrage  Turbulence  Onde Orograph.  Cendres Volcan.







- Altitude de l'aérodrome : 2265 ft
- Code IATA : CZL


DABC - Mohamed Boudiaf Int. Constantine

DERNIER METAR :
  • 190700Z 00000KT CAVOK 25/11 Q1018

METARs EXPIRÉS :
  • 190630Z VRB02KT CAVOK 24/11 Q1018
  • 190600Z 00000KT CAVOK 22/11 Q1018
  • 190530Z 00000KT CAVOK 20/11 Q1017
  • 190500Z 00000KT CAVOK 18/09 Q1017
  • 190430Z 00000KT CAVOK 17/10 Q1017

TAF TAF DABC
Valide du 19 à 06h jusqu'au 20 à 06h UTC


190500Z 1906/2006 16004KT CAVOK
BECMG 1908/1910 24010KT
BECMG 1912/1914 04012KT
PROB30
TEMPO 1913/1918 FEW023TCU
BECMG 1920/1922 12006KT
Pas de NOTAMs connus pour ce terrain.



MET'MAP, la Météo Aéronautique d'un coup d'oeil ! - Copyright ORBIFLY Décembre 2007 - Disclaimer

ORBIFLY MET'MAP TEAM :

Programmation & Développement : Alexandra Zaïnal
Conception & Développement : Baudouin d'Aumeries
Co-Programmation & Développement : Marc-Olivier Méhu
Soutien technique & logistique : Manuel Goepfert

Contact : metmap@orbifly.com




SOURCES & CREDITS :

   NOAA